createdAt,value
2023-04-16T00:01:39.373Z,2.15
2023-04-16T00:04:33.266Z,1.92
2023-04-16T00:07:20.606Z,1.83
2023-04-16T00:10:15.132Z,2.05
2023-04-16T00:13:02.376Z,1.70
2023-04-16T00:15:56.178Z,2.05
2023-04-16T00:18:43.350Z,2.00
2023-04-16T00:21:38.222Z,1.88
2023-04-16T00:24:25.504Z,1.75
2023-04-16T00:27:19.204Z,1.90
2023-04-16T00:30:07.314Z,1.58
2023-04-16T00:33:01.331Z,2.13
2023-04-16T00:35:48.860Z,1.83
2023-04-16T00:38:42.232Z,1.92
2023-04-16T00:41:29.381Z,1.90
2023-04-16T00:44:23.268Z,2.35
2023-04-16T00:47:10.929Z,1.90
2023-04-16T00:50:04.226Z,2.08
2023-04-16T00:52:51.539Z,2.35
2023-04-16T00:55:46.209Z,2.38
2023-04-16T00:58:42.306Z,2.13
2023-04-16T01:01:29.489Z,2.42
2023-04-16T01:04:23.284Z,2.70
2023-04-16T01:07:10.496Z,2.30
2023-04-16T01:10:04.253Z,3.05
2023-04-16T01:12:51.279Z,2.55
2023-04-16T01:15:45.278Z,3.22
2023-04-16T01:18:39.291Z,3.22
2023-04-16T01:21:26.573Z,3.50
2023-04-16T01:24:20.302Z,3.53
2023-04-16T01:27:07.411Z,3.63
2023-04-16T01:30:03.304Z,3.40
2023-04-16T01:32:50.562Z,4.03
2023-04-16T01:35:44.309Z,3.85
2023-04-16T01:38:31.370Z,4.03
2023-04-16T01:41:25.279Z,4.45
2023-04-16T01:44:12.436Z,4.55
2023-04-16T01:47:06.321Z,4.50
2023-04-16T01:49:53.714Z,5.53
2023-04-16T01:52:47.368Z,4.90
2023-04-16T01:55:41.285Z,5.25
2023-04-16T01:58:36.315Z,4.80
2023-04-16T02:01:24.316Z,4.75
2023-04-16T02:04:19.326Z,4.15
2023-04-16T02:07:07.137Z,4.00
2023-04-16T02:10:01.663Z,4.22
2023-04-16T02:12:48.793Z,4.65
2023-04-16T02:15:42.414Z,3.78
2023-04-16T02:18:36.397Z,4.35
2023-04-16T02:21:23.553Z,4.88
2023-04-16T02:24:17.385Z,4.03
2023-04-16T02:27:11.620Z,4.72
2023-04-16T02:29:58.760Z,3.92
2023-04-16T02:32:52.515Z,4.45
2023-04-16T02:35:47.665Z,4.80
2023-04-16T02:38:44.482Z,4.60
2023-04-16T02:41:31.716Z,3.97
2023-04-16T02:44:25.431Z,4.95
2023-04-16T02:47:12.591Z,4.00
2023-04-16T02:50:06.721Z,4.63
2023-04-16T02:53:00.440Z,4.82
2023-04-16T02:56:09.560Z,4.60
2023-04-16T02:59:02.988Z,4.53
2023-04-16T03:01:56.520Z,3.90
2023-04-16T03:04:43.780Z,4.22
2023-04-16T03:07:37.447Z,4.82
2023-04-16T03:10:24.639Z,4.65
2023-04-16T03:13:18.414Z,4.70
2023-04-16T03:16:05.823Z,5.10
2023-04-16T03:18:59.450Z,4.95
2023-04-16T03:21:46.523Z,4.63
2023-04-16T03:24:40.501Z,5.82
2023-04-16T03:27:27.578Z,5.72
2023-04-16T03:30:23.563Z,5.75
2023-04-16T03:33:10.707Z,6.20
2023-04-16T03:36:05.445Z,5.80
2023-04-16T03:38:52.718Z,6.28
2023-04-16T03:41:46.556Z,6.82
2023-04-16T03:44:33.947Z,7.32
2023-04-16T03:47:27.538Z,6.72
2023-04-16T03:50:21.463Z,7.47
2023-04-16T03:53:08.669Z,7.20
2023-04-16T03:56:02.501Z,6.82
2023-04-16T03:58:49.600Z,6.82
2023-04-16T04:01:43.515Z,6.97
2023-04-16T04:04:37.639Z,7.78
2023-04-16T04:07:24.885Z,7.80
2023-04-16T04:10:18.708Z,8.30
2023-04-16T04:13:07.017Z,8.57
2023-04-16T04:16:00.575Z,7.05
2023-04-16T04:18:47.827Z,9.18
2023-04-16T04:21:41.549Z,9.27
2023-04-16T04:24:28.634Z,8.93
2023-04-16T04:27:22.533Z,8.88
2023-04-16T04:30:10.418Z,11.02
2023-04-16T04:33:04.592Z,10.27
2023-04-16T04:35:52.120Z,9.65
2023-04-16T04:38:45.585Z,10.30
2023-04-16T04:41:39.604Z,9.05
2023-04-16T04:44:26.604Z,10.10
2023-04-16T04:47:21.667Z,9.23
2023-04-16T04:50:09.220Z,8.85
2023-04-16T04:53:02.735Z,9.52
2023-04-16T04:55:53.173Z,10.25
2023-04-16T05:01:36.953Z,13.75
2023-04-16T05:04:30.565Z,15.63
2023-04-16T05:07:17.636Z,15.25
2023-04-16T05:10:11.589Z,15.75
2023-04-16T05:12:59.202Z,16.13
2023-04-16T05:15:52.932Z,15.13
2023-04-16T05:18:40.005Z,15.90
2023-04-16T05:21:33.611Z,17.05
2023-04-16T05:24:20.752Z,17.40
2023-04-16T05:27:14.641Z,16.52
2023-04-16T05:30:01.806Z,16.42
2023-04-16T05:32:55.747Z,16.15
2023-04-16T05:35:42.860Z,15.15
2023-04-16T05:38:36.651Z,13.43
2023-04-16T05:41:30.392Z,13.60
2023-04-16T05:44:23.688Z,14.00
2023-04-16T05:47:11.004Z,12.10
2023-04-16T05:50:11.657Z,12.60
2023-04-16T05:52:58.933Z,13.63
2023-04-16T05:55:53.695Z,14.00
2023-04-16T05:58:40.780Z,14.85
2023-04-16T06:01:34.731Z,14.40
2023-04-16T06:04:21.921Z,14.57
2023-04-16T06:07:15.713Z,14.77
2023-04-16T06:10:02.780Z,13.90
2023-04-16T06:12:56.654Z,14.02
2023-04-16T06:15:43.744Z,14.32
2023-04-16T06:18:37.724Z,12.95
2023-04-16T06:21:24.841Z,14.02
2023-04-16T06:24:19.720Z,13.45
2023-04-16T06:27:06.815Z,13.25
2023-04-16T06:30:00.762Z,12.30
2023-04-16T06:32:48.116Z,13.43
2023-04-16T06:35:43.019Z,14.13
2023-04-16T06:38:30.129Z,11.50
2023-04-16T06:41:23.781Z,11.68
2023-04-16T06:44:11.157Z,12.85
2023-04-16T06:47:05.096Z,12.75
2023-04-16T06:49:52.254Z,12.55
2023-04-16T06:52:46.051Z,12.32
2023-04-16T06:55:33.127Z,12.27
2023-04-16T06:58:26.790Z,12.10
2023-04-16T07:01:14.130Z,11.95
2023-04-16T07:04:07.893Z,12.02
2023-04-16T07:07:01.792Z,12.05
2023-04-16T07:09:56.124Z,13.13
2023-04-16T07:12:43.291Z,12.60
2023-04-16T07:15:36.895Z,11.20
2023-04-16T07:18:24.027Z,13.05
2023-04-16T07:21:17.822Z,12.27
2023-04-16T07:24:05.028Z,11.38
2023-04-16T07:26:58.924Z,12.52
2023-04-16T07:29:46.106Z,12.80
2023-04-16T07:32:39.882Z,12.40
2023-04-16T07:35:27.497Z,11.00
2023-04-16T07:38:22.811Z,10.40
2023-04-16T07:41:16.900Z,11.20
2023-04-16T07:44:10.913Z,10.70
2023-04-16T07:47:05.836Z,10.85
2023-04-16T07:49:59.965Z,11.02
2023-04-16T07:52:53.837Z,10.48
2023-04-16T07:55:41.022Z,10.05
2023-04-16T07:58:35.193Z,9.52
2023-04-16T08:01:22.450Z,10.48
2023-04-16T08:04:16.386Z,10.25
2023-04-16T08:07:03.656Z,10.45
2023-04-16T08:10:00.918Z,9.65
2023-04-16T08:12:55.029Z,9.52
2023-04-16T08:15:42.186Z,10.63
2023-04-16T08:18:35.910Z,10.48
2023-04-16T08:21:23.034Z,9.65
2023-04-16T08:24:16.919Z,9.90
2023-04-16T08:27:15.432Z,10.35
2023-04-16T08:30:12.992Z,10.43
2023-04-16T08:33:00.475Z,10.38
2023-04-16T08:35:53.906Z,8.55
2023-04-16T08:38:41.056Z,8.88
2023-04-16T08:41:38.906Z,8.70
2023-04-16T08:44:34.942Z,9.40
2023-04-16T08:47:31.016Z,7.97
2023-04-16T08:50:23.873Z,8.30
2023-04-16T08:53:20.261Z,9.35
2023-04-16T08:56:11.520Z,8.65
2023-04-16T08:59:08.419Z,8.70
2023-04-16T09:02:00.130Z,8.57
2023-04-16T09:04:55.214Z,8.45
2023-04-16T09:07:43.708Z,9.35
2023-04-16T09:10:38.148Z,9.70
2023-04-16T09:13:25.806Z,8.65
2023-04-16T09:16:21.049Z,10.23
2023-04-16T09:19:08.397Z,9.27
2023-04-16T09:22:03.311Z,9.23
2023-04-16T09:24:50.409Z,7.53
2023-04-16T09:27:44.070Z,8.63
2023-04-16T09:30:38.007Z,7.40
2023-04-16T09:33:25.153Z,7.72
2023-04-16T09:36:19.018Z,7.50
2023-04-16T09:39:06.274Z,7.25
2023-04-16T09:42:01.092Z,7.18
2023-04-16T09:44:49.877Z,7.30
2023-04-16T09:47:49.394Z,7.95
2023-04-16T09:50:36.567Z,9.00
2023-04-16T09:53:35.216Z,8.45
2023-04-16T09:56:26.128Z,8.77
2023-04-16T09:59:27.085Z,8.32
2023-04-16T10:02:15.340Z,8.23
2023-04-16T10:05:10.411Z,7.90
2023-04-16T10:08:02.082Z,7.03
2023-04-16T10:10:56.411Z,7.60
2023-04-16T10:13:43.565Z,7.20
2023-04-16T10:16:38.464Z,6.97
2023-04-16T10:19:34.150Z,6.32
2023-04-16T10:22:21.393Z,7.55
2023-04-16T10:25:17.148Z,7.88
2023-04-16T10:28:04.815Z,8.80
2023-04-16T10:30:59.279Z,8.00
2023-04-16T10:33:46.817Z,7.88
2023-04-16T10:36:44.118Z,7.50
2023-04-16T10:39:38.137Z,8.75
2023-04-16T10:42:26.042Z,8.50
2023-04-16T10:45:20.109Z,8.85
2023-04-16T10:48:10.069Z,8.57
2023-04-16T10:51:05.303Z,9.15
2023-04-16T10:53:53.870Z,9.07
2023-04-16T10:56:48.157Z,9.18
2023-04-16T10:59:37.096Z,9.27
2023-04-16T11:02:35.437Z,9.07
2023-04-16T11:05:24.133Z,9.25
2023-04-16T11:08:22.312Z,9.00
2023-04-16T11:11:10.313Z,9.45
2023-04-16T11:14:04.139Z,8.90
2023-04-16T11:16:51.256Z,8.90
2023-04-16T11:19:45.320Z,9.68
2023-04-16T11:22:36.676Z,9.25
2023-04-16T11:25:32.200Z,9.13
2023-04-16T11:28:19.264Z,9.48
2023-04-16T11:31:18.474Z,8.15
2023-04-16T11:34:08.939Z,9.00
2023-04-16T11:37:02.277Z,10.52
2023-04-16T11:39:52.988Z,11.02
2023-04-16T11:42:48.290Z,9.82
2023-04-16T11:45:35.699Z,10.68
2023-04-16T11:48:29.550Z,10.68
2023-04-16T11:51:24.328Z,8.93
2023-04-16T11:54:29.291Z,9.52
2023-04-16T11:57:27.928Z,9.68
2023-04-16T12:00:24.427Z,10.32
2023-04-16T12:03:12.188Z,10.95
2023-04-16T12:06:15.256Z,11.23
2023-04-16T12:12:33.280Z,11.10
2023-04-16T12:15:20.369Z,12.70
2023-04-16T12:18:14.262Z,11.13
2023-04-16T12:21:05.693Z,10.90
2023-04-16T12:24:02.271Z,11.50
2023-04-16T12:26:57.463Z,11.73
2023-04-16T12:29:51.442Z,11.95
2023-04-16T12:32:38.915Z,11.80
2023-04-16T12:35:40.323Z,11.10
2023-04-16T12:38:27.626Z,11.48
2023-04-16T12:41:21.377Z,10.57
2023-04-16T12:44:13.132Z,11.10
2023-04-16T12:47:06.656Z,10.52
2023-04-16T12:49:53.731Z,10.02
2023-04-16T12:52:47.592Z,9.38
2023-04-16T12:55:34.749Z,8.88
2023-04-16T12:58:28.325Z,9.60
2023-04-16T13:01:15.455Z,9.73
2023-04-16T13:04:09.799Z,9.73
2023-04-16T13:06:57.006Z,11.23
2023-04-16T13:09:51.636Z,10.77
2023-04-16T13:12:38.875Z,10.40
2023-04-16T13:15:32.515Z,9.15
2023-04-16T13:18:19.693Z,8.63
2023-04-16T13:21:13.648Z,10.63
2023-04-16T13:24:00.855Z,12.35
2023-04-16T13:26:54.379Z,11.43
2023-04-16T13:29:41.519Z,11.75
2023-04-16T13:32:35.421Z,11.10
2023-04-16T13:35:23.167Z,11.60
2023-04-16T13:38:17.433Z,11.77
2023-04-16T13:41:05.205Z,11.00
2023-04-16T13:43:58.500Z,10.38
2023-04-16T13:46:47.828Z,10.85
2023-04-16T13:49:41.707Z,10.95
2023-04-16T13:52:28.757Z,10.52
2023-04-16T13:55:25.570Z,9.75
2023-04-16T13:58:12.654Z,10.95
2023-04-16T14:01:06.787Z,10.65
2023-04-16T14:03:54.063Z,9.52
2023-04-16T14:06:47.489Z,11.20
2023-04-16T14:09:41.428Z,10.68
2023-04-16T14:12:28.630Z,10.85
2023-04-16T14:15:22.705Z,10.90
2023-04-16T14:18:09.920Z,11.35
2023-04-16T14:21:04.712Z,10.57
2023-04-16T14:23:51.839Z,11.55
2023-04-16T14:26:45.455Z,10.80
2023-04-16T14:29:32.649Z,11.95
2023-04-16T14:32:26.759Z,11.40
2023-04-16T14:35:13.897Z,11.90
2023-04-16T14:38:07.570Z,9.85
2023-04-16T14:40:55.326Z,10.43
2023-04-16T14:43:49.527Z,11.63
2023-04-16T14:46:45.520Z,11.27
2023-04-16T14:49:39.636Z,10.65
2023-04-16T14:52:27.562Z,10.88
2023-04-16T14:55:21.798Z,10.75
2023-04-16T14:58:08.920Z,11.75
2023-04-16T15:01:02.571Z,10.27
2023-04-16T15:03:56.742Z,12.38
2023-04-16T15:06:46.462Z,11.40
2023-04-16T15:09:42.551Z,10.85
2023-04-16T15:12:29.653Z,11.88
2023-04-16T15:15:24.673Z,11.25
2023-04-16T15:18:11.774Z,11.60
2023-04-16T15:21:05.791Z,10.95
2023-04-16T15:23:53.802Z,12.00
2023-04-16T15:26:47.645Z,11.48
2023-04-16T15:29:35.376Z,11.63
2023-04-16T15:32:29.895Z,13.65
2023-04-16T15:35:16.968Z,12.30
2023-04-16T15:38:10.670Z,11.23
2023-04-16T15:41:00.974Z,11.68
2023-04-16T15:43:54.644Z,12.98
2023-04-16T15:46:48.949Z,12.45
2023-04-16T15:49:36.360Z,12.55
2023-04-16T15:52:29.586Z,11.95
2023-04-16T15:55:24.624Z,13.32
2023-04-16T15:58:19.611Z,11.38
2023-04-16T16:01:06.763Z,11.48
2023-04-16T16:04:00.734Z,10.82
2023-04-16T16:06:55.656Z,11.10
2023-04-16T16:09:42.765Z,12.25
2023-04-16T16:12:36.637Z,12.23
2023-04-16T16:15:23.776Z,11.55
2023-04-16T16:18:17.776Z,11.23
2023-04-16T16:21:04.929Z,11.50
2023-04-16T16:24:04.756Z,11.73
2023-04-16T16:26:51.877Z,11.93
2023-04-16T16:29:45.711Z,11.52
2023-04-16T16:32:32.843Z,11.02
2023-04-16T16:35:26.744Z,11.75
2023-04-16T16:38:13.835Z,12.27
2023-04-16T16:41:07.689Z,12.70
2023-04-16T16:43:56.239Z,12.05
2023-04-16T16:46:49.760Z,12.13
2023-04-16T16:49:43.709Z,14.18
2023-04-16T16:52:37.705Z,13.23
2023-04-16T16:55:24.896Z,14.07
2023-04-16T16:58:18.675Z,13.20
2023-04-16T17:01:12.782Z,13.55
2023-04-16T17:04:00.016Z,13.52
2023-04-16T17:06:54.010Z,14.02
2023-04-16T17:09:41.234Z,15.10
2023-04-16T17:12:35.050Z,13.43
2023-04-16T17:15:22.272Z,15.18
2023-04-16T17:18:15.867Z,16.35
2023-04-16T17:21:02.995Z,13.85
2023-04-16T17:23:56.749Z,13.70
2023-04-16T17:26:44.268Z,14.63
2023-04-16T17:29:37.836Z,15.40
2023-04-16T17:32:25.101Z,14.43
2023-04-16T17:35:19.806Z,17.30
2023-04-16T17:38:13.807Z,15.55
2023-04-16T17:41:00.885Z,16.25
2023-04-16T17:43:58.039Z,15.32
2023-04-16T17:46:45.193Z,16.23
2023-04-16T17:49:39.848Z,17.60
2023-04-16T17:52:34.224Z,17.52
2023-04-16T17:55:28.038Z,17.27
2023-04-16T17:58:21.780Z,14.10
2023-04-16T18:01:08.922Z,16.63
2023-04-16T18:04:02.924Z,14.55
2023-04-16T18:06:50.487Z,15.25
2023-04-16T18:09:43.845Z,15.07
2023-04-16T18:12:31.048Z,15.63
2023-04-16T18:15:24.795Z,15.77
2023-04-16T18:18:18.833Z,16.80
2023-04-16T18:21:14.624Z,17.05
2023-04-16T18:24:03.557Z,16.33
2023-04-16T18:26:56.882Z,16.27
2023-04-16T18:29:45.264Z,16.15
2023-04-16T18:32:46.834Z,14.88
2023-04-16T18:35:41.910Z,17.00
2023-04-16T18:38:49.454Z,17.85
2023-04-16T18:41:47.794Z,15.63
2023-04-16T18:44:41.942Z,17.38
2023-04-16T18:47:29.157Z,14.98
2023-04-16T18:50:22.949Z,15.20
2023-04-16T18:53:17.258Z,15.75
2023-04-16T18:56:04.602Z,16.85
2023-04-16T18:58:57.987Z,16.48
2023-04-16T19:01:45.193Z,16.40
2023-04-16T19:04:38.969Z,15.45
2023-04-16T19:07:26.090Z,17.58
2023-04-16T19:10:19.957Z,16.25
2023-04-16T19:13:07.174Z,16.23
2023-04-16T19:16:09.102Z,16.83
2023-04-16T19:18:56.271Z,19.85
2023-04-16T19:21:50.082Z,17.42
2023-04-16T19:24:37.349Z,17.60
2023-04-16T19:27:31.158Z,20.05
2023-04-16T19:30:18.435Z,19.17
2023-04-16T19:33:12.073Z,19.67
2023-04-16T19:36:00.198Z,19.05
2023-04-16T19:38:53.952Z,18.67
2023-04-16T19:41:41.074Z,18.95
2023-04-16T19:44:34.955Z,20.15
2023-04-16T19:47:22.118Z,18.20
2023-04-16T19:50:16.033Z,20.27
2023-04-16T19:53:09.991Z,20.67
2023-04-16T19:55:57.253Z,21.13
2023-04-16T19:58:51.043Z,22.88
2023-04-16T20:01:38.449Z,21.92
2023-04-16T20:04:33.174Z,22.80
2023-04-16T20:07:20.608Z,22.63
2023-04-16T20:10:15.017Z,22.77
2023-04-16T20:13:09.046Z,20.33
2023-04-16T20:15:56.471Z,23.58
2023-04-16T20:18:50.118Z,22.35
2023-04-16T20:21:37.208Z,22.75
2023-04-16T20:24:31.014Z,22.33
2023-04-16T20:27:19.427Z,23.73
2023-04-16T20:30:14.155Z,22.98
2023-04-16T20:33:01.336Z,25.10
2023-04-16T20:35:57.120Z,25.27
2023-04-16T20:38:45.037Z,23.30
2023-04-16T20:41:39.103Z,23.02
2023-04-16T20:44:33.001Z,22.58
2023-04-16T20:47:28.055Z,24.85
2023-04-16T20:50:15.786Z,23.98
2023-04-16T20:53:10.102Z,23.80
2023-04-16T20:55:57.607Z,23.90
2023-04-16T20:58:51.087Z,24.88
2023-04-16T21:01:38.232Z,24.73
2023-04-16T21:04:32.310Z,23.23
2023-04-16T21:07:19.489Z,21.52
2023-04-16T21:10:14.155Z,22.75
2023-04-16T21:13:08.136Z,22.83
2023-04-16T21:15:55.524Z,22.20
2023-04-16T21:18:49.146Z,21.23
2023-04-16T21:21:38.445Z,23.48
2023-04-16T21:24:32.122Z,21.38
2023-04-16T21:27:19.246Z,24.08
2023-04-16T21:30:13.128Z,23.20
2023-04-16T21:33:00.428Z,25.75
2023-04-16T21:36:01.168Z,24.55
2023-04-16T21:38:48.253Z,23.00
2023-04-16T21:41:42.239Z,23.95
2023-04-16T21:44:36.304Z,23.50
2023-04-16T21:47:30.203Z,25.85
2023-04-16T21:50:17.454Z,23.63
2023-04-16T21:53:13.217Z,23.77
2023-04-16T21:56:00.749Z,23.52
2023-04-16T21:58:54.164Z,25.80
2023-04-16T22:01:41.640Z,22.10
2023-04-16T22:04:44.155Z,22.85
2023-04-16T22:07:38.244Z,24.02
2023-04-16T22:10:25.790Z,23.30
2023-04-16T22:13:20.238Z,23.30
2023-04-16T22:16:08.805Z,23.08
2023-04-16T22:19:04.179Z,22.83
2023-04-16T22:21:51.254Z,22.48
2023-04-16T22:24:45.455Z,22.38
2023-04-16T22:27:33.495Z,20.02
2023-04-16T22:30:27.194Z,23.05
2023-04-16T22:33:21.321Z,24.88
2023-04-16T22:36:08.692Z,22.17
2023-04-16T22:39:02.254Z,20.98
2023-04-16T22:41:49.445Z,23.52
2023-04-16T22:44:43.327Z,21.83
2023-04-16T22:47:30.572Z,19.52
2023-04-16T22:50:25.267Z,17.67
2023-04-16T22:53:12.420Z,21.27
2023-04-16T22:56:06.278Z,21.35
2023-04-16T22:58:53.512Z,22.25
2023-04-16T23:01:48.361Z,20.45
2023-04-16T23:04:35.555Z,21.25
2023-04-16T23:07:29.331Z,20.58
2023-04-16T23:10:23.286Z,21.08
2023-04-16T23:13:17.418Z,21.77
2023-04-16T23:16:11.360Z,19.92
2023-04-16T23:18:58.555Z,22.55
2023-04-16T23:21:52.324Z,22.63
2023-04-16T23:24:39.458Z,22.60
2023-04-16T23:27:33.354Z,22.92
2023-04-16T23:30:20.646Z,23.75
2023-04-16T23:33:14.397Z,20.67
2023-04-16T23:36:01.648Z,21.30
2023-04-16T23:38:55.364Z,24.88
2023-04-16T23:41:49.353Z,24.38
2023-04-16T23:44:36.593Z,25.67
2023-04-16T23:47:30.441Z,24.58
2023-04-16T23:50:24.394Z,23.42
2023-04-16T23:53:11.560Z,24.25
2023-04-16T23:56:05.376Z,23.20
2023-04-16T23:58:59.413Z,23.45
